Shelby County Airport Alabaster US
ICAO: KEET
IATA: EET
Category: Medium
Scheduled Services: No

Elevation: 586 ft
TransAlt. 18000 ft.

Airport Communications:
BIRMINGHAM APP/DEP:123.8
ASOS:134.325
CTAF/UNICOM:122.7

KEET Zoom In..

If you have problems with the map follow the link
https://www.worldairports.se/pages/airport.php?
ICAO=KEET

Runways:

(A) RW 16 length 5000 ft width 75 ft
---- / hdg 160

(B) RW 34 length 5000 ft width 75 ft
---- / hdg 340

Location; KEET
Day. 14 / Time. 21.53 Zulu
* Altimeter: 29.80
* Temperature: 13° c. 55.4°f.
* Wind from: 080° Speed 07 kn.
Dewpoint: 13° c.
Visibility: 3 Statute Miles.
Clouds: Overcast 400 ft.
Conditions: Mist.

KEET 142153Z AUTO 08007KT 050V120 3SM BR OVC004 13/13 A2980 RMK AO2 SLP089 T01330133


Wind From 080°
Speed 07 kn.

 
 
jpsmedia.com for Web Design worldairports.se 2018   terms of use